Time;durP1;ratioP1;P1;durP2;ratioP2;P2;SDS_P1;SDS_P2;PMS_P1;PMS_P2;Temp;Humidity;BMP_temperature;BMP_pressure;BME280_temperature;BME280_humidity;BME280_pressure;Samples;Min_cycle;Max_cycle;Signal;HPM_P1;HPM_P2
2022/02/17 00:00:46;;;;;;;4.65;0.88;;;;;;;11.54;96.02;99127.00;5053272;28;20036;-77
2022/02/17 00:03:11;;;;;;;4.75;0.68;;;;;;;11.46;96.45;99120.22;5049678;28;20048;-78
2022/02/17 00:05:37;;;;;;;3.35;0.90;;;;;;;11.50;96.36;99100.63;5050786;28;20040;-78
2022/02/17 00:08:03;;;;;;;8.88;0.85;;;;;;;11.47;96.16;99095.06;5052139;28;20036;-78
2022/02/17 00:10:30;;;;;;;8.75;0.95;;;;;;;11.52;96.13;99102.25;5033678;28;20115;-78
2022/02/17 00:12:58;;;;;;;4.00;0.65;;;;;;;11.51;97.04;99096.28;5038970;28;20057;-78
2022/02/17 00:15:27;;;;;;;4.00;0.82;;;;;;;11.43;97.48;99110.25;5053508;28;20033;-78
2022/02/17 00:17:54;;;;;;;6.03;0.85;;;;;;;11.37;98.03;99092.09;5048599;28;20048;-78
2022/02/17 00:20:19;;;;;;;3.70;0.63;;;;;;;11.39;97.54;99095.28;5047944;28;20033;-78
2022/02/17 00:22:45;;;;;;;5.30;0.93;;;;;;;11.36;97.48;99075.75;5038321;28;20116;-77
2022/02/17 00:25:11;;;;;;;6.22;0.80;;;;;;;11.32;97.87;99078.91;5068242;28;20040;-79
2022/02/17 00:27:38;;;;;;;5.38;1.02;;;;;;;11.31;97.44;99088.50;5047053;28;20036;-79
2022/02/17 00:30:05;;;;;;;4.97;0.88;;;;;;;11.35;96.52;99104.47;5030994;28;20028;-77
2022/02/17 00:32:32;;;;;;;2.55;0.65;;;;;;;11.40;96.75;99094.28;5065079;28;20033;-77
2022/02/17 00:34:58;;;;;;;4.28;1.20;;;;;;;11.35;97.19;99112.25;5033348;28;20032;-77
2022/02/17 00:37:23;;;;;;;2.97;0.60;;;;;;;11.30;97.61;99090.31;5055542;28;20036;-78
2022/02/17 00:39:49;;;;;;;2.05;0.98;;;;;;;11.28;97.39;99086.31;5053758;28;20032;-77
2022/02/17 00:42:15;;;;;;;3.28;1.05;;;;;;;11.28;97.11;99100.09;5050158;28;20035;-78
2022/02/17 00:44:42;;;;;;;6.15;1.25;;;;;;;11.23;97.35;99112.09;5051671;28;20423;-77
2022/02/17 00:47:10;;;;;;;3.15;0.85;;;;;;;11.23;97.10;99084.34;5052050;28;20028;-78
2022/02/17 00:49:37;;;;;;;4.30;0.80;;;;;;;11.22;97.29;99113.84;5069799;28;20169;-78
2022/02/17 00:52:02;;;;;;;3.65;0.50;;;;;;;11.16;97.37;99114.66;5054014;28;20532;-77
2022/02/17 00:54:28;;;;;;;3.58;0.90;;;;;;;11.16;97.90;99124.25;5048427;28;20024;-77
2022/02/17 00:56:53;;;;;;;11.73;1.58;;;;;;;11.03;98.46;99118.06;5067560;28;20032;-79
2022/02/17 00:59:24;;;;;;;7.28;0.95;;;;;;;11.06;99.74;99109.88;5036298;28;20109;-78
2022/02/17 01:01:49;;;;;;;6.97;0.70;;;;;;;10.94;100.00;99137.41;5042303;28;20036;-79
2022/02/17 01:04:16;;;;;;;5.65;1.20;;;;;;;10.93;100.00;99142.81;5050883;28;20039;-79
2022/02/17 01:06:42;;;;;;;6.10;1.05;;;;;;;10.86;100.00;99137.59;5050421;28;20059;-80
2022/02/17 01:09:09;;;;;;;8.18;1.50;;;;;;;10.82;100.00;99141.59;5053652;28;20366;-79
2022/02/17 01:11:34;;;;;;;10.02;1.38;;;;;;;10.79;100.00;99140.19;5050781;28;20028;-78
2022/02/17 01:14:01;;;;;;;8.38;1.13;;;;;;;10.81;99.41;99119.25;5050756;28;20052;-78
2022/02/17 01:16:26;;;;;;;8.00;1.10;;;;;;;10.81;98.18;99129.63;5049841;28;20028;-78
2022/02/17 01:18:52;;;;;;;10.38;1.52;;;;;;;10.80;98.12;99133.22;5050525;28;20040;-79
2022/02/17 01:21:20;;;;;;;13.43;2.38;;;;;;;10.87;97.12;99114.06;5050731;28;20082;-78
2022/02/17 01:23:45;;;;;;;16.30;1.75;;;;;;;10.81;96.99;99142.56;5051636;28;20345;-77
2022/02/17 01:26:12;;;;;;;17.50;2.13;;;;;;;10.77;97.49;99136.19;5048740;28;20040;-78
2022/02/17 01:28:48;;;;;;;10.38;1.90;;;;;;;10.75;97.66;99143.38;5056372;28;20039;-78
2022/02/17 01:31:17;;;;;;;13.63;1.30;;;;;;;10.73;97.64;99150.56;5047954;28;20079;-78
2022/02/17 01:33:42;;;;;;;12.95;1.45;;;;;;;10.67;97.95;99160.69;5049977;28;20040;-78
2022/02/17 01:36:14;;;;;;;12.20;1.90;;;;;;;10.62;98.08;99173.44;5043839;28;20025;-78
2022/02/17 01:38:42;;;;;;;15.68;1.67;;;;;;;10.63;98.85;99162.09;5042274;28;20552;-80
2022/02/17 01:41:08;;;;;;;11.45;1.70;;;;;;;10.60;98.94;99162.47;5036431;28;20506;-79
2022/02/17 01:43:36;;;;;;;10.85;1.80;;;;;;;10.58;99.26;99150.72;5034514;28;20111;-77
2022/02/17 01:46:03;;;;;;;20.05;2.00;;;;;;;10.55;99.13;99192.56;5033283;28;20082;-78
2022/02/17 01:48:28;;;;;;;14.98;2.17;;;;;;;10.50;98.40;99217.28;5034332;28;20097;-79
2022/02/17 01:50:54;;;;;;;10.60;2.33;;;;;;;10.55;98.38;99192.56;5070715;28;20037;-77
2022/02/17 01:53:20;;;;;;;8.63;2.30;;;;;;;10.54;97.90;99203.94;5047605;28;20029;-78
2022/02/17 01:55:52;;;;;;;17.20;3.85;;;;;;;10.44;98.21;99184.38;5051317;28;20086;-79
2022/02/17 01:58:17;;;;;;;10.00;3.05;;;;;;;10.47;95.88;99194.34;5034893;28;20487;-78
2022/02/17 02:00:44;;;;;;;15.50;2.00;;;;;;;10.55;93.59;99208.13;5049774;28;20090;-77
2022/02/17 02:03:11;;;;;;;17.17;2.65;;;;;;;10.43;94.17;99207.88;5045509;28;20118;-78
2022/02/17 02:05:52;;;;;;;19.93;2.57;;;;;;;10.37;94.41;99232.78;5046661;28;20131;-78
2022/02/17 02:08:18;;;;;;;21.70;2.60;;;;;;;10.33;94.29;99260.06;5044745;28;20405;-77
2022/02/17 02:10:44;;;;;;;14.65;2.65;;;;;;;10.26;94.66;99254.81;5049046;28;20562;-77
2022/02/17 02:13:09;;;;;;;15.52;2.58;;;;;;;10.30;93.08;99237.94;5029784;28;20028;-76
2022/02/17 02:15:57;;;;;;;30.58;4.47;;;;;;;10.32;91.73;99241.13;5031567;28;20032;-75
2022/02/17 02:18:23;;;;;;;13.95;2.17;;;;;;;10.30;91.63;99245.72;5053437;28;20093;-76
2022/02/17 02:20:55;;;;;;;15.95;3.22;;;;;;;10.32;90.76;99259.28;5041923;28;20035;-77
2022/02/17 02:23:33;;;;;;;19.70;2.70;;;;;;;10.26;88.92;99266.97;5045195;28;20028;-77
2022/02/17 02:26:01;;;;;;;13.85;2.50;;;;;;;10.29;88.56;99246.66;5039856;28;20028;-77
2022/02/17 02:28:29;;;;;;;27.23;4.78;;;;;;;10.20;88.70;99236.66;5051513;28;20379;-77
2022/02/17 02:30:58;;;;;;;15.80;2.80;;;;;;;10.16;88.85;99244.00;5036823;28;20058;-77
2022/02/17 02:33:26;;;;;;;21.10;4.30;;;;;;;10.10;87.68;99273.25;5032088;28;20037;-77
2022/02/17 02:35:54;;;;;;;22.45;2.70;;;;;;;10.06;88.35;99257.28;5031469;28;20275;-78
2022/02/17 02:38:20;;;;;;;25.27;3.33;;;;;;;10.03;87.19;99267.22;5043780;28;20024;-77
2022/02/17 02:40:46;;;;;;;23.38;3.10;;;;;;;9.89;88.45;99277.50;5065822;28;20029;-76
2022/02/17 02:43:22;;;;;;;27.25;3.65;;;;;;;9.90;89.13;99311.94;5045241;28;20556;-78
2022/02/17 02:45:47;;;;;;;33.97;3.95;;;;;;;9.87;87.93;99359.75;5029363;28;20029;-78
2022/02/17 02:48:16;;;;;;;23.45;3.40;;;;;;;9.71;89.49;99340.06;5030891;28;20039;-77
2022/02/17 02:50:43;;;;;;;20.75;4.15;;;;;;;9.64;89.92;99349.56;5046908;28;20062;-78
2022/02/17 02:53:14;;;;;;;28.63;3.50;;;;;;;9.52;89.72;99340.69;5045173;28;20032;-78
2022/02/17 02:55:41;;;;;;;25.27;4.05;;;;;;;9.50;89.79;99353.81;5047775;28;20627;-77
2022/02/17 02:58:06;;;;;;;26.00;3.55;;;;;;;9.53;89.63;99373.34;5047223;28;20032;-77
2022/02/17 03:00:32;;;;;;;23.95;3.33;;;;;;;9.55;89.24;99373.97;5055714;28;20499;-76
2022/02/17 03:02:57;;;;;;;37.30;4.13;;;;;;;9.52;89.10;99369.94;5029718;28;20028;-77
2022/02/17 03:05:23;;;;;;;32.22;4.18;;;;;;;9.50;88.26;99376.31;5064885;28;20029;-77
2022/02/17 03:07:49;;;;;;;42.35;5.20;;;;;;;9.51;87.14;99386.47;5047865;28;20039;-77
2022/02/17 03:10:15;;;;;;;27.25;4.97;;;;;;;9.52;85.34;99387.28;5047703;28;20040;-78
2022/02/17 03:12:42;;;;;;;32.63;4.38;;;;;;;9.53;85.37;99405.22;5031278;28;20537;-77
2022/02/17 03:15:08;;;;;;;29.15;3.65;;;;;;;9.58;84.88;99424.56;5030121;28;20032;-77
2022/02/17 03:17:34;;;;;;;21.40;3.72;;;;;;;9.67;83.71;99400.97;5045054;28;20036;-76
2022/02/17 03:19:59;;;;;;;18.95;3.40;;;;;;;9.65;82.27;99408.09;5047635;28;20330;-76
2022/02/17 03:22:25;;;;;;;28.27;4.65;;;;;;;9.64;81.46;99410.88;5064415;28;20037;-78
2022/02/17 03:24:52;;;;;;;23.65;4.03;;;;;;;9.71;81.17;99433.25;5045637;28;20616;-77
2022/02/17 03:27:17;;;;;;;27.70;4.13;;;;;;;9.62;81.62;99428.38;5047760;28;20024;-77
2022/02/17 03:29:43;;;;;;;35.78;4.60;;;;;;;9.68;80.23;99438.81;5053530;28;20037;-76
2022/02/17 03:32:09;;;;;;;26.70;3.63;;;;;;;9.81;76.25;99447.69;5061769;28;20024;-77
2022/02/17 03:34:36;;;;;;;17.35;3.22;;;;;;;9.85;74.98;99473.03;5063133;28;20025;-77
2022/02/17 03:37:02;;;;;;;21.02;3.05;;;;;;;9.89;73.47;99469.09;5046376;28;20573;-77
2022/02/17 03:39:28;;;;;;;25.02;3.38;;;;;;;9.89;72.52;99468.31;5035714;28;20029;-79
2022/02/17 03:42:04;;;;;;;28.10;4.10;;;;;;;9.86;73.27;99504.91;5046006;28;20040;-78
2022/02/17 03:44:31;;;;;;;25.13;4.57;;;;;;;9.79;74.64;99498.84;5052226;28;20038;-77
2022/02/17 03:47:11;;;;;;;27.75;3.70;;;;;;;9.74;74.59;99479.50;5043649;28;20506;-77
2022/02/17 03:50:05;;;;;;;27.33;3.70;;;;;;;9.80;71.36;99493.50;5049927;28;20379;-77
2022/02/17 03:52:33;;;;;;;20.25;4.00;;;;;;;9.74;71.68;99496.81;5050436;28;20525;-77
2022/02/17 03:55:10;;;;;;;17.75;2.88;;;;;;;9.67;71.99;99508.88;5034314;28;20060;-77
2022/02/17 03:57:38;;;;;;;23.70;2.75;;;;;;;9.69;71.72;99518.06;5050520;28;20039;-79
2022/02/17 04:00:07;;;;;;;17.30;2.97;;;;;;;9.70;71.33;99493.78;5053653;28;20040;-78
2022/02/17 04:02:42;;;;;;;20.85;2.80;;;;;;;9.69;71.32;99492.16;5051983;28;20045;-79
2022/02/17 04:05:08;;;;;;;28.67;4.22;;;;;;;9.68;71.77;99493.16;5052544;28;20025;-78
2022/02/17 04:07:35;;;;;;;25.20;3.60;;;;;;;9.60;72.59;99489.88;5051542;28;20210;-77
2022/02/17 04:10:13;;;;;;;22.60;3.50;;;;;;;9.62;73.44;99506.03;5062686;28;20193;-78
2022/02/17 04:12:39;;;;;;;30.27;5.97;;;;;;;9.67;72.92;99516.63;5055557;28;20032;-79
2022/02/17 04:15:05;;;;;;;52.00;14.23;;;;;;;9.65;73.71;99519.41;5052767;28;20059;-78
2022/02/17 04:17:36;;;;;;;65.97;21.70;;;;;;;9.60;75.01;99534.66;5071602;28;20086;-78
2022/02/17 04:20:14;;;;;;;58.33;19.85;;;;;;;9.57;73.72;99547.16;5037898;28;20544;-78
2022/02/17 04:23:00;;;;;;;42.38;8.07;;;;;;;9.58;73.30;99538.44;5051917;28;20055;-76
2022/02/17 04:25:45;;;;;;;36.83;6.90;;;;;;;9.60;72.51;99547.59;5051819;28;20305;-78
2022/02/17 04:28:32;;;;;;;36.05;7.50;;;;;;;9.63;72.53;99556.81;5045736;28;20457;-78
2022/02/17 04:30:58;;;;;;;38.63;5.35;;;;;;;9.52;73.69;99551.09;5050152;28;20089;-78
2022/02/17 04:33:23;;;;;;;32.60;4.28;;;;;;;9.55;72.97;99573.25;5049635;28;20067;-79
2022/02/17 04:35:55;;;;;;;33.45;4.95;;;;;;;9.55;73.43;99583.59;5049450;28;20048;-78
2022/02/17 04:38:21;;;;;;;35.67;4.75;;;;;;;9.52;72.92;99583.94;5050222;28;20036;-77
2022/02/17 04:43:37;;;;;;;25.77;4.00;;;;;;;9.53;73.64;99611.41;5049698;28;20040;-78
2022/02/17 04:46:03;;;;;;;35.85;5.00;;;;;;;9.51;72.38;99611.59;5050400;28;20260;-79
2022/02/17 04:48:28;;;;;;;33.58;4.28;;;;;;;9.49;72.95;99604.97;5053440;28;20024;-78
2022/02/17 04:50:56;;;;;;;43.08;5.78;;;;;;;9.49;73.07;99613.56;5033603;28;20037;-78
2022/02/17 04:53:23;;;;;;;32.08;4.65;;;;;;;9.39;73.50;99618.19;5051241;28;20406;-78
2022/02/17 04:55:53;;;;;;;31.67;7.10;;;;;;;9.46;72.53;99602.78;5049681;28;20195;-77
2022/02/17 04:58:18;;;;;;;37.38;5.15;;;;;;;9.37;72.66;99619.34;5057376;28;20663;-78
2022/02/17 05:00:46;;;;;;;36.65;5.10;;;;;;;9.29;72.39;99602.13;5050124;28;20497;-76
2022/02/17 05:03:31;;;;;;;35.47;4.35;;;;;;;9.36;71.53;99608.19;5065610;28;20093;-78
2022/02/17 05:06:07;;;;;;;30.70;4.32;;;;;;;9.28;71.98;99626.38;5051553;28;20100;-77
2022/02/17 05:08:34;;;;;;;34.10;4.22;;;;;;;9.34;71.54;99649.78;5039631;28;20028;-76
2022/02/17 05:11:01;;;;;;;40.47;5.13;;;;;;;9.32;72.99;99662.09;5047510;28;20044;-78
2022/02/17 05:13:27;;;;;;;44.47;5.55;;;;;;;9.15;74.79;99650.25;5032086;28;20051;-78
2022/02/17 05:15:52;;;;;;;35.40;5.18;;;;;;;9.09;75.18;99651.75;5035261;28;20144;-79
2022/02/17 05:18:19;;;;;;;37.90;4.35;;;;;;;9.06;75.08;99635.78;5053429;28;20588;-76
2022/02/17 05:20:46;;;;;;;34.47;6.35;;;;;;;9.12;73.38;99648.03;5050962;28;20051;-77
2022/02/17 05:23:24;;;;;;;35.70;5.15;;;;;;;9.10;73.15;99648.19;5062144;28;20036;-77
2022/02/17 05:26:08;;;;;;;31.40;5.03;;;;;;;9.22;72.48;99678.81;5050182;28;21872;-77
2022/02/17 05:29:08;;;;;;;39.35;6.35;;;;;;;9.22;73.48;99668.47;4991159;28;20038;-77
2022/02/17 05:31:45;;;;;;;39.53;4.97;;;;;;;9.22;72.35;99676.22;5032648;28;20036;-76
2022/02/17 05:34:20;;;;;;;39.40;5.20;;;;;;;9.16;72.78;99698.41;5047842;28;20568;-78
2022/02/17 05:37:07;;;;;;;33.28;5.03;;;;;;;9.22;71.80;99681.41;5045262;28;20062;-78
2022/02/17 05:39:51;;;;;;;32.83;6.10;;;;;;;9.29;71.80;99684.91;5066473;28;20052;-77
2022/02/17 05:42:19;;;;;;;37.70;4.97;;;;;;;9.26;71.74;99693.00;5047737;28;20033;-76
2022/02/17 05:44:44;;;;;;;31.92;4.32;;;;;;;9.25;71.18;99706.91;5045044;28;20475;-77
2022/02/17 05:47:10;;;;;;;34.60;4.35;;;;;;;9.25;71.80;99727.59;5067550;28;20032;-77
2022/02/17 05:49:35;;;;;;;40.78;5.35;;;;;;;9.18;71.84;99727.50;5049955;28;20040;-77
2022/02/17 05:52:01;;;;;;;32.45;5.03;;;;;;;9.17;70.63;99712.94;5050902;28;20028;-80
2022/02/17 05:54:26;;;;;;;40.15;5.32;;;;;;;9.28;70.08;99727.25;5032187;28;20119;-78
2022/02/17 05:56:52;;;;;;;28.27;5.30;;;;;;;9.23;67.92;99722.63;5031390;28;20028;-78
2022/02/17 05:59:17;;;;;;;29.23;4.40;;;;;;;9.25;68.16;99728.44;5049478;28;20070;-78
2022/02/17 06:01:43;;;;;;;27.88;4.70;;;;;;;9.23;67.88;99740.72;5067461;28;20032;-78
2022/02/17 06:04:08;;;;;;;32.78;4.80;;;;;;;9.26;65.58;99744.75;5049908;28;20166;-79
2022/02/17 06:06:36;;;;;;;30.60;4.03;;;;;;;9.27;66.19;99759.31;5050253;28;20639;-79
2022/02/17 06:09:05;;;;;;;37.47;4.60;;;;;;;9.23;67.11;99789.88;5030490;28;20795;-77
2022/02/17 06:11:30;;;;;;;38.33;5.47;;;;;;;9.26;68.05;99768.03;5069020;28;20093;-79
2022/02/17 06:13:57;;;;;;;39.10;5.10;;;;;;;9.21;66.94;99767.72;5067874;28;20060;-75
2022/02/17 06:16:22;;;;;;;25.40;3.50;;;;;;;9.21;66.41;99773.72;5033361;28;20059;-80
2022/02/17 06:18:48;;;;;;;27.48;3.90;;;;;;;9.15;66.24;99758.88;5045231;28;20139;-79
2022/02/17 06:21:14;;;;;;;28.30;4.25;;;;;;;9.10;67.15;99761.19;5048734;28;20047;-79
2022/02/17 06:23:39;;;;;;;30.90;4.50;;;;;;;9.06;66.57;99770.25;5049717;28;20029;-79
2022/02/17 06:26:05;;;;;;;26.17;4.15;;;;;;;9.07;65.52;99782.22;5031889;28;20032;-80
2022/02/17 06:28:30;;;;;;;30.60;3.75;;;;;;;9.12;66.18;99795.44;5048162;28;20036;-78
2022/02/17 06:30:56;;;;;;;22.90;3.95;;;;;;;9.07;67.20;99797.72;5048450;28;20376;-77
2022/02/17 06:33:22;;;;;;;44.30;6.03;;;;;;;9.08;66.59;99787.22;5035485;28;20032;-80
2022/02/17 06:35:47;;;;;;;30.67;4.57;;;;;;;9.07;66.86;99808.88;5047657;28;20455;-78
2022/02/17 06:38:13;;;;;;;24.60;4.47;;;;;;;8.99;66.58;99797.78;5048127;28;20036;-79
2022/02/17 06:40:38;;;;;;;33.97;4.57;;;;;;;9.01;65.65;99806.97;5047709;28;20040;-80
2022/02/17 06:43:10;;;;;;;36.45;3.65;;;;;;;9.15;64.38;99808.84;5047689;28;20033;-79
2022/02/17 06:45:37;;;;;;;28.42;3.95;;;;;;;9.11;63.42;99814.50;5058644;28;20495;-77
2022/02/17 06:48:04;;;;;;;25.92;3.65;;;;;;;9.10;63.46;99829.22;5031304;28;20040;-80
2022/02/17 06:50:30;;;;;;;22.05;4.10;;;;;;;9.13;63.66;99834.03;5044898;28;20028;-79
2022/02/17 06:52:56;;;;;;;22.45;3.47;;;;;;;9.14;64.17;99845.22;5052236;28;20029;-78
2022/02/17 06:55:22;;;;;;;26.63;4.10;;;;;;;9.11;63.98;99867.03;5048005;28;20032;-77
2022/02/17 06:57:48;;;;;;;29.95;3.28;;;;;;;9.10;63.63;99874.97;5047164;28;20035;-78
2022/02/17 07:00:14;;;;;;;27.33;3.90;;;;;;;9.01;64.56;99871.63;5048188;28;20410;-81
2022/02/17 07:02:50;;;;;;;25.90;3.20;;;;;;;9.05;64.38;99885.81;5045713;28;20074;-77
2022/02/17 07:05:16;;;;;;;28.63;3.42;;;;;;;9.06;64.63;99887.44;5037358;28;20387;-78
2022/02/17 07:07:41;;;;;;;26.83;3.97;;;;;;;9.01;63.75;99900.06;5067811;28;20044;-77
2022/02/17 07:10:07;;;;;;;30.27;3.55;;;;;;;9.01;63.20;99897.47;5047613;28;20032;-76
2022/02/17 07:12:33;;;;;;;25.42;4.70;;;;;;;8.98;62.65;99907.34;5031123;28;20028;-76
2022/02/17 07:15:01;;;;;;;26.15;3.63;;;;;;;9.02;62.63;99921.53;5066489;28;20055;-78
2022/02/17 07:17:26;;;;;;;28.45;3.58;;;;;;;9.00;63.33;99923.50;5049423;28;20109;-76
2022/02/17 07:19:52;;;;;;;26.55;3.75;;;;;;;9.03;63.33;99923.16;5043720;28;20036;-78
2022/02/17 07:22:18;;;;;;;31.00;4.78;;;;;;;8.96;64.49;99947.09;5053748;28;20250;-78
2022/02/17 07:24:44;;;;;;;34.58;4.15;;;;;;;8.95;64.55;99949.88;5053639;28;20075;-78
2022/02/17 07:27:09;;;;;;;27.75;3.92;;;;;;;8.96;64.90;99944.50;5053696;28;20033;-77
2022/02/17 07:29:36;;;;;;;28.13;4.07;;;;;;;8.97;65.29;99960.84;5052952;28;20039;-78
2022/02/17 07:32:07;;;;;;;35.35;5.53;;;;;;;8.94;65.36;99964.56;5067371;28;20471;-78
2022/02/17 07:34:33;;;;;;;29.85;3.53;;;;;;;8.90;64.85;99967.63;5046055;28;20568;-78
2022/02/17 07:36:58;;;;;;;33.78;4.07;;;;;;;8.95;64.78;100001.56;5052687;28;20032;-76
2022/02/17 07:39:25;;;;;;;27.70;4.15;;;;;;;8.96;64.00;99995.41;5049797;28;20107;-79
2022/02/17 07:41:51;;;;;;;33.53;4.30;;;;;;;8.98;64.58;100006.41;5035088;28;20048;-75
2022/02/17 07:44:25;;;;;;;29.35;4.43;;;;;;;8.91;64.87;99988.16;5054892;28;20067;-77
2022/02/17 07:46:52;;;;;;;23.17;3.92;;;;;;;8.81;65.45;100018.53;5069731;28;20040;-78
2022/02/17 07:49:17;;;;;;;29.15;4.70;;;;;;;8.95;64.75;99993.81;5052746;28;20043;-77
2022/02/17 07:51:45;;;;;;;25.58;3.90;;;;;;;8.91;64.49;100024.38;5051368;28;20036;-77
2022/02/17 07:54:10;;;;;;;35.78;4.97;;;;;;;8.90;64.76;100011.59;5050025;28;20443;-78
2022/02/17 07:56:36;;;;;;;35.80;4.70;;;;;;;8.97;64.28;100025.50;5044688;28;20051;-77
2022/02/17 07:59:01;;;;;;;27.98;4.10;;;;;;;8.92;65.00;100031.13;5035011;28;20040;-77
2022/02/17 08:01:27;;;;;;;30.90;4.43;;;;;;;8.99;64.56;100027.91;5050237;28;20036;-77
2022/02/17 08:03:54;;;;;;;33.38;5.35;;;;;;;8.85;64.92;100037.13;5050053;28;20044;-78
2022/02/17 08:06:20;;;;;;;37.22;5.25;;;;;;;8.94;65.26;100057.63;5049590;28;20079;-78
2022/02/17 08:08:48;;;;;;;33.70;4.88;;;;;;;8.95;64.62;100042.94;5037514;28;20319;-78
2022/02/17 08:11:15;;;;;;;32.70;4.05;;;;;;;8.98;63.64;100057.31;5035530;28;20036;-78
2022/02/17 08:13:41;;;;;;;27.70;4.00;;;;;;;9.01;64.26;100062.97;5069650;28;20036;-78
2022/02/17 08:16:06;;;;;;;27.00;4.13;;;;;;;9.00;63.85;100057.97;5050597;28;20028;-75
2022/02/17 08:18:32;;;;;;;26.23;3.85;;;;;;;9.04;63.29;100048.91;5052449;28;20082;-76
2022/02/17 08:20:57;;;;;;;25.63;3.78;;;;;;;9.03;63.86;100057.66;5051859;28;20568;-76
2022/02/17 08:23:24;;;;;;;26.60;3.38;;;;;;;9.18;63.66;100065.53;5051606;28;20024;-78
2022/02/17 08:25:51;;;;;;;18.38;4.32;;;;;;;9.45;62.87;100070.31;5033615;28;20452;-79
2022/02/17 08:28:16;;;;;;;22.90;3.42;;;;;;;9.35;62.04;100074.88;5032629;28;20060;-77
2022/02/17 08:30:42;;;;;;;17.30;3.22;;;;;;;9.40;61.66;100069.19;5047129;28;20494;-77
2022/02/17 08:33:07;;;;;;;28.98;3.33;;;;;;;9.36;60.00;100084.25;5049740;28;20119;-76
2022/02/17 08:35:33;;;;;;;30.95;3.72;;;;;;;9.28;60.31;100073.91;5051329;28;20024;-75
2022/02/17 08:38:00;;;;;;;27.42;3.72;;;;;;;9.39;61.04;100088.28;5051152;28;20393;-77
2022/02/17 08:40:27;;;;;;;27.90;4.28;;;;;;;9.51;60.75;100079.19;5064937;28;20578;-75
2022/02/17 08:42:54;;;;;;;26.40;3.30;;;;;;;9.39;60.47;100116.75;5069070;28;20036;-78
2022/02/17 08:45:20;;;;;;;25.20;4.57;;;;;;;9.59;59.69;100119.78;5053032;28;20043;-76
2022/02/17 08:47:45;;;;;;;28.95;3.85;;;;;;;9.43;59.12;100130.97;5065638;28;20037;-78
2022/02/17 08:50:11;;;;;;;19.75;2.80;;;;;;;9.56;59.35;100120.91;5053365;28;20040;-77
2022/02/17 08:52:37;;;;;;;27.75;3.83;;;;;;;9.53;59.30;100123.81;5066731;28;20031;-78
2022/02/17 08:55:05;;;;;;;22.50;4.72;;;;;;;9.39;59.02;100134.88;5053092;28;20024;-76
2022/02/17 08:57:32;;;;;;;17.05;3.40;;;;;;;9.43;58.45;100136.97;5032212;28;20675;-77
2022/02/17 08:59:58;;;;;;;16.52;2.78;;;;;;;9.39;59.12;100153.78;5047042;28;20404;-79
2022/02/17 09:02:23;;;;;;;23.83;3.08;;;;;;;9.36;58.75;100148.94;5067482;28;20031;-77
2022/02/17 09:04:49;;;;;;;15.05;2.45;;;;;;;9.33;58.19;100157.03;5067311;28;20529;-78
2022/02/17 09:07:14;;;;;;;18.90;2.42;;;;;;;9.29;57.49;100156.53;5032327;28;20087;-77
2022/02/17 09:09:40;;;;;;;20.55;4.25;;;;;;;9.22;58.38;100162.53;5048640;28;20029;-79
2022/02/17 09:12:05;;;;;;;26.95;3.53;;;;;;;9.39;57.79;100161.53;5034430;28;20315;-78
2022/02/17 09:14:31;;;;;;;21.33;3.10;;;;;;;9.42;58.28;100194.03;5032246;28;20032;-79
2022/02/17 09:16:57;;;;;;;18.58;3.03;;;;;;;9.41;59.08;100195.03;5054443;28;20561;-79
2022/02/17 09:19:23;;;;;;;20.35;3.05;;;;;;;9.40;58.36;100196.81;5051237;28;20033;-79
2022/02/17 09:21:48;;;;;;;20.98;3.17;;;;;;;9.37;58.70;100179.03;5033297;28;20036;-76
2022/02/17 09:24:14;;;;;;;15.73;3.33;;;;;;;9.35;58.30;100196.50;5036291;28;20029;-77
2022/02/17 09:26:40;;;;;;;28.67;3.78;;;;;;;9.43;57.64;100183.53;5068015;28;20064;-77
2022/02/17 09:29:08;;;;;;;22.73;3.45;;;;;;;9.53;58.75;100201.47;5033792;28;20278;-78
2022/02/17 09:31:33;;;;;;;17.50;2.92;;;;;;;9.57;55.30;100182.09;5046472;28;20052;-79
2022/02/17 09:33:59;;;;;;;23.27;2.95;;;;;;;9.57;55.02;100204.53;5055373;28;20384;-78
2022/02/17 09:36:25;;;;;;;20.27;2.65;;;;;;;9.43;55.92;100206.81;5037981;28;20036;-78
2022/02/17 09:38:55;;;;;;;19.00;3.58;;;;;;;9.39;54.70;100220.25;5048575;28;20075;-78
2022/02/17 09:41:21;;;;;;;21.63;2.97;;;;;;;9.41;56.07;100229.47;5051046;28;20037;-78
2022/02/17 09:43:49;;;;;;;14.15;2.53;;;;;;;9.41;56.40;100246.78;5049451;28;20067;-75
2022/02/17 09:46:21;;;;;;;19.45;3.05;;;;;;;9.42;55.12;100251.81;5031916;28;20485;-79
2022/02/17 09:48:55;;;;;;;18.70;3.00;;;;;;;9.26;55.64;100244.81;5049993;28;20032;-76
2022/02/17 09:51:23;;;;;;;17.23;2.92;;;;;;;9.45;56.70;100255.84;5035896;28;20082;-78
2022/02/17 09:53:49;;;;;;;21.92;3.50;;;;;;;9.50;55.42;100271.69;5026871;28;20060;-77
2022/02/17 09:56:14;;;;;;;22.52;3.30;;;;;;;9.66;55.56;100263.09;5052886;28;20567;-77
2022/02/17 09:58:40;;;;;;;17.92;3.08;;;;;;;9.77;56.14;100264.56;5046739;28;20036;-77
2022/02/17 10:01:05;;;;;;;19.67;3.25;;;;;;;9.61;56.62;100275.75;5046024;28;20043;-78
2022/02/17 10:03:36;;;;;;;23.05;3.20;;;;;;;9.67;56.97;100273.31;5050296;28;20131;-77
2022/02/17 10:06:11;;;;;;;18.27;2.92;;;;;;;9.65;57.03;100297.75;5031819;28;20050;-78
2022/02/17 10:08:38;;;;;;;21.95;3.42;;;;;;;9.49;56.86;100281.25;5060876;28;20037;-77
2022/02/17 10:11:05;;;;;;;24.63;4.35;;;;;;;9.29;55.97;100313.56;5033845;28;20081;-76
2022/02/17 10:13:31;;;;;;;18.58;2.83;;;;;;;9.21;55.09;100308.38;5031306;28;20195;-77
2022/02/17 10:16:00;;;;;;;19.23;2.45;;;;;;;9.25;55.21;100301.91;5047193;28;20045;-78
2022/02/17 10:18:28;;;;;;;30.10;4.93;;;;;;;9.55;55.10;100297.91;5033271;28;20042;-78
2022/02/17 10:21:06;;;;;;;22.30;2.65;;;;;;;9.61;54.67;100309.41;5048051;28;20033;-80
2022/02/17 10:23:47;;;;;;;13.80;2.65;;;;;;;9.64;54.83;100314.25;5048214;28;20483;-80
2022/02/17 10:26:18;;;;;;;15.82;2.53;;;;;;;9.70;54.87;100316.16;5049158;28;20044;-76
2022/02/17 10:28:51;;;;;;;16.40;3.03;;;;;;;9.69;55.50;100319.75;5035115;28;20113;-78
2022/02/17 10:31:22;;;;;;;17.70;2.55;;;;;;;9.62;53.25;100319.56;5026650;28;20071;-78
2022/02/17 10:33:52;;;;;;;18.92;2.15;;;;;;;9.62;53.38;100342.06;5069500;28;20039;-76
2022/02/17 10:36:31;;;;;;;20.55;4.28;;;;;;;9.49;53.07;100321.81;5065269;28;20028;-80
2022/02/17 10:39:12;;;;;;;15.73;2.30;;;;;;;9.44;52.27;100335.25;5064961;28;20316;-76
2022/02/17 10:41:51;;;;;;;10.25;1.63;;;;;;;9.48;53.05;100351.28;5064220;28;20040;-78
2022/02/17 10:44:19;;;;;;;13.43;1.80;;;;;;;9.50;52.73;100355.31;5047667;28;20084;-75
2022/02/17 10:46:45;;;;;;;13.88;2.13;;;;;;;9.53;52.39;100355.00;5035591;28;20029;-76
2022/02/17 10:49:11;;;;;;;10.73;2.40;;;;;;;9.55;50.67;100367.81;5046388;28;20028;-79
2022/02/17 10:51:37;;;;;;;9.82;2.00;;;;;;;9.51;51.92;100344.00;5049343;28;20450;-78
2022/02/17 10:54:03;;;;;;;12.82;1.90;;;;;;;9.45;50.97;100359.34;5050846;28;20342;-77
2022/02/17 10:56:32;;;;;;;9.57;1.30;;;;;;;9.43;50.17;100356.13;5039213;28;20240;-74
2022/02/17 10:59:06;;;;;;;6.55;1.60;;;;;;;9.41;50.29;100374.38;5055810;28;20032;-74
2022/02/17 11:01:31;;;;;;;10.80;2.17;;;;;;;9.34;50.71;100357.88;5071354;28;20036;-77
2022/02/17 11:03:58;;;;;;;8.52;1.75;;;;;;;9.29;52.42;100371.28;5051856;28;20439;-78
2022/02/17 11:06:23;;;;;;;12.80;1.70;;;;;;;9.34;52.22;100375.97;5033293;28;20024;-78
2022/02/17 11:08:51;;;;;;;17.33;2.17;;;;;;;9.43;52.89;100374.22;5052303;28;20036;-76
2022/02/17 11:11:18;;;;;;;11.55;1.70;;;;;;;9.58;52.09;100390.75;5057660;28;20025;-77
2022/02/17 11:13:53;;;;;;;12.20;2.10;;;;;;;9.70;50.94;100373.97;5046611;28;20127;-78
2022/02/17 11:16:22;;;;;;;9.07;2.38;;;;;;;9.62;51.33;100358.41;5051438;28;20112;-78
2022/02/17 11:18:48;;;;;;;15.57;2.70;;;;;;;9.64;50.83;100364.22;5050707;28;20028;-79
2022/02/17 11:21:15;;;;;;;12.90;2.70;;;;;;;9.77;52.48;100373.31;5054601;28;20388;-75
2022/02/17 11:23:42;;;;;;;7.82;1.27;;;;;;;9.80;52.78;100371.22;5037700;28;20474;-77
2022/02/17 11:26:23;;;;;;;16.95;2.20;;;;;;;9.81;52.17;100365.03;5054005;28;20090;-78
2022/02/17 11:28:49;;;;;;;12.15;2.60;;;;;;;9.90;52.36;100379.63;5050831;28;20040;-77
2022/02/17 11:31:14;;;;;;;16.00;1.85;;;;;;;9.81;51.28;100390.94;5072317;28;20033;-78
2022/02/17 11:33:41;;;;;;;12.02;2.45;;;;;;;9.90;51.03;100395.16;5050243;28;20040;-78
2022/02/17 11:36:07;;;;;;;14.73;2.17;;;;;;;9.94;51.05;100382.69;5049530;28;20517;-78